Airfield :
LOGIN :

Register | Disclaimer

   EN    FR    IT 

 










Legend :    VFR   Marginal VFR   IFR   Intensive IFR   Very Intensive IFR
Visi :
Ceiling :
>= 8 km
>= 3000ft
5 to 8 km
1000 to 3000 ft
1500m to 5 km
500 to 1000 ft
800 to 1500m
200 to 500 ft
< 800m
< 200 ft
Symbols :   Thunderstorms  Fog  Heavy snow  Heavy precipitations  Wind > 20 kt
SIGMETs :     Misc.  Thunderstorms  Icing  Turbulence  Mountain Waves  Volcanic Ashes






- Airport Elevation : 1273 ft
- IATA code : LJU


LJLJ - Ljubljana

CURRENT METAR :
  • 160500Z 25003KT 220V320 9999 FEW003 SCT035 BKN060 11/10 Q1008 NOSIG

EXPIRED METARs :
  • 160430Z 34003KT 9999 FEW003 SCT035 BKN070 11/10 Q1008 NOSIG
  • 160400Z VRB02KT 9999 FEW003 SCT035 BKN070 10/10 Q1007 NOSIG
  • 160330Z VRB01KT 9999 SCT020 BKN030 10/10 Q1007 NOSIG
  • 160300Z VRB01KT 9999 -RA SCT030 OVC050 10/10 Q1007 NOSIG
  • 160230Z VRB01KT 9999 -RA SCT020 OVC050 10/10 Q1007 NOSIG

TAF TAF LJLJ
Valid from the 16 at 00:00 until the 17 at 00:00 UTC


152300Z 1600/1624 VRB02KT 9999 BKN050
TEMPO 1600/1604 -SHRA SCT030TCU BKN050
PROB30
TEMPO 1603/1607 BKN005
TEMPO 1611/1624 SHRA SCT020TCU BKN040
PROB40
TEMPO 1612/1620 25010KT 5000 TSRA SCT020CB BKN040



MET'MAP, your aeronautical weather chart ! - Copyright ORBIFLY December 2007 - Disclaimer

ORBIFLY MET'MAP TEAM :

Programming & Development : Alexandra Zaïnal
Concept & original design : Baudouin d'Aumeries
Assistance for programming : Marc-Olivier Méhu
Technical & hardware support : Manuel Goepfert

Contact : metmap@orbifly.com




SOURCES & CREDITS :

   NOAA